Middle Haddam, Connecticut
Current Conditions -  °F | °C
As of 12:35 PM on Wednesday 26 Nov 2014 (Local Time) from KSNC Reporting Station
Heavy Rain Heavy Rain  
Wind Chill: 29°   Ceiling: 400
Heat Index: 34°   Visibility: 1.5mi
Dew Point: 34°   Wind: 6mph
Humidity: 100%   Direction: 40°NE
Pressure: 30.02"   Gusts: NA
Location:  41.55°N, 72.55°W
Report Text: KSNC 261735Z AUTO 04005KT 1 1/2SM +RA OVC004 01/01 A3002 RMK AO2 P0018
Loading
Personal Weather Stations






























Interactive Weather Map New forecast layout! Learn more

10-Day Weather Forecast

Advertisements
Track Severe Weather on mobile